sensor_id;sensor_type;location;lat;lon;timestamp;P1;durP1;ratioP1;P2;durP2;ratioP2
41333;SDS011;27078;46.428;6.256;2022-08-18T00:02:38;2.97;;;2.38;;
41333;SDS011;27078;46.428;6.256;2022-08-18T00:06:02;3.60;;;2.20;;
41333;SDS011;27078;46.428;6.256;2022-08-18T00:09:22;3.47;;;2.30;;
41333;SDS011;27078;46.428;6.256;2022-08-18T00:12:44;4.80;;;2.38;;
41333;SDS011;27078;46.428;6.256;2022-08-18T00:16:08;2.85;;;2.40;;
41333;SDS011;27078;46.428;6.256;2022-08-18T00:19:32;3.17;;;2.40;;
41333;SDS011;27078;46.428;6.256;2022-08-18T00:22:55;4.03;;;2.25;;
41333;SDS011;27078;46.428;6.256;2022-08-18T00:26:19;3.15;;;2.33;;
41333;SDS011;27078;46.428;6.256;2022-08-18T00:29:45;5.35;;;2.60;;
41333;SDS011;27078;46.428;6.256;2022-08-18T00:33:09;2.90;;;2.60;;
41333;SDS011;27078;46.428;6.256;2022-08-18T00:36:32;4.22;;;2.35;;
41333;SDS011;27078;46.428;6.256;2022-08-18T00:39:57;4.20;;;2.30;;
41333;SDS011;27078;46.428;6.256;2022-08-18T00:46:51;4.13;;;2.20;;
41333;SDS011;27078;46.428;6.256;2022-08-18T00:50:19;3.05;;;2.50;;
41333;SDS011;27078;46.428;6.256;2022-08-18T00:54:02;3.85;;;2.38;;
41333;SDS011;27078;46.428;6.256;2022-08-18T00:56:34;3.13;;;2.40;;
41333;SDS011;27078;46.428;6.256;2022-08-18T00:59:08;3.40;;;2.53;;
41333;SDS011;27078;46.428;6.256;2022-08-18T01:01:51;4.05;;;2.58;;
41333;SDS011;27078;46.428;6.256;2022-08-18T01:08:52;4.72;;;2.38;;
41333;SDS011;27078;46.428;6.256;2022-08-18T01:12:16;2.80;;;2.20;;
41333;SDS011;27078;46.428;6.256;2022-08-18T01:15:40;3.67;;;2.53;;
41333;SDS011;27078;46.428;6.256;2022-08-18T01:19:23;4.47;;;2.35;;
41333;SDS011;27078;46.428;6.256;2022-08-18T01:23:13;4.68;;;2.90;;
41333;SDS011;27078;46.428;6.256;2022-08-18T01:26:39;3.63;;;2.50;;
41333;SDS011;27078;46.428;6.256;2022-08-18T01:30:06;3.95;;;2.85;;
41333;SDS011;27078;46.428;6.256;2022-08-18T01:33:34;4.13;;;2.83;;
41333;SDS011;27078;46.428;6.256;2022-08-18T01:36:58;3.78;;;3.00;;
41333;SDS011;27078;46.428;6.256;2022-08-18T01:40:22;3.30;;;2.97;;
41333;SDS011;27078;46.428;6.256;2022-08-18T01:43:47;5.30;;;3.13;;
41333;SDS011;27078;46.428;6.256;2022-08-18T01:46:16;5.22;;;3.13;;
41333;SDS011;27078;46.428;6.256;2022-08-18T01:48:44;3.15;;;2.83;;
41333;SDS011;27078;46.428;6.256;2022-08-18T01:52:08;3.40;;;2.70;;
41333;SDS011;27078;46.428;6.256;2022-08-18T01:54:35;3.33;;;2.70;;
41333;SDS011;27078;46.428;6.256;2022-08-18T01:57:01;4.00;;;2.88;;
41333;SDS011;27078;46.428;6.256;2022-08-18T01:59:27;3.00;;;2.60;;
41333;SDS011;27078;46.428;6.256;2022-08-18T02:01:53;3.13;;;2.78;;
41333;SDS011;27078;46.428;6.256;2022-08-18T02:04:23;5.57;;;2.95;;
41333;SDS011;27078;46.428;6.256;2022-08-18T02:06:52;4.10;;;2.80;;
41333;SDS011;27078;46.428;6.256;2022-08-18T02:09:18;3.75;;;2.90;;
41333;SDS011;27078;46.428;6.256;2022-08-18T02:11:43;3.53;;;2.75;;
41333;SDS011;27078;46.428;6.256;2022-08-18T02:14:08;4.03;;;3.10;;
41333;SDS011;27078;46.428;6.256;2022-08-18T02:16:34;4.72;;;3.20;;
41333;SDS011;27078;46.428;6.256;2022-08-18T02:18:59;5.60;;;3.13;;
41333;SDS011;27078;46.428;6.256;2022-08-18T02:21:24;3.97;;;3.20;;
41333;SDS011;27078;46.428;6.256;2022-08-18T02:23:50;6.05;;;3.20;;
41333;SDS011;27078;46.428;6.256;2022-08-18T02:26:16;4.00;;;2.90;;
41333;SDS011;27078;46.428;6.256;2022-08-18T02:28:42;5.47;;;2.80;;
41333;SDS011;27078;46.428;6.256;2022-08-18T02:31:10;4.22;;;3.13;;
41333;SDS011;27078;46.428;6.256;2022-08-18T02:33:38;3.50;;;2.63;;
41333;SDS011;27078;46.428;6.256;2022-08-18T02:37:02;2.97;;;2.65;;
41333;SDS011;27078;46.428;6.256;2022-08-18T02:40:27;4.32;;;3.10;;
41333;SDS011;27078;46.428;6.256;2022-08-18T02:43:52;4.20;;;2.83;;
41333;SDS011;27078;46.428;6.256;2022-08-18T02:47:19;3.15;;;2.85;;
41333;SDS011;27078;46.428;6.256;2022-08-18T02:50:59;5.07;;;3.30;;
41333;SDS011;27078;46.428;6.256;2022-08-18T02:54:23;5.47;;;3.25;;
41333;SDS011;27078;46.428;6.256;2022-08-18T02:57:50;6.13;;;3.30;;
41333;SDS011;27078;46.428;6.256;2022-08-18T03:01:23;4.55;;;2.85;;
41333;SDS011;27078;46.428;6.256;2022-08-18T03:04:48;4.20;;;3.35;;
41333;SDS011;27078;46.428;6.256;2022-08-18T03:08:12;5.07;;;2.80;;
41333;SDS011;27078;46.428;6.256;2022-08-18T03:11:37;4.15;;;3.03;;
41333;SDS011;27078;46.428;6.256;2022-08-18T03:15:01;5.63;;;3.40;;
41333;SDS011;27078;46.428;6.256;2022-08-18T03:18:25;5.95;;;3.35;;
41333;SDS011;27078;46.428;6.256;2022-08-18T03:21:52;5.32;;;3.40;;
41333;SDS011;27078;46.428;6.256;2022-08-18T03:25:16;4.55;;;3.20;;
41333;SDS011;27078;46.428;6.256;2022-08-18T03:28:41;6.45;;;3.35;;
41333;SDS011;27078;46.428;6.256;2022-08-18T03:32:06;4.47;;;3.05;;
41333;SDS011;27078;46.428;6.256;2022-08-18T03:35:30;3.92;;;3.38;;
41333;SDS011;27078;46.428;6.256;2022-08-18T03:39:00;3.90;;;3.30;;
41333;SDS011;27078;46.428;6.256;2022-08-18T03:42:24;4.20;;;3.10;;
41333;SDS011;27078;46.428;6.256;2022-08-18T03:45:49;4.82;;;3.30;;
41333;SDS011;27078;46.428;6.256;2022-08-18T03:49:14;3.88;;;3.10;;
41333;SDS011;27078;46.428;6.256;2022-08-18T03:52:38;4.63;;;3.33;;
41333;SDS011;27078;46.428;6.256;2022-08-18T03:56:05;4.65;;;3.42;;
41333;SDS011;27078;46.428;6.256;2022-08-18T03:59:32;4.95;;;3.40;;
41333;SDS011;27078;46.428;6.256;2022-08-18T04:02:57;4.80;;;3.25;;
41333;SDS011;27078;46.428;6.256;2022-08-18T04:06:27;5.97;;;2.97;;
41333;SDS011;27078;46.428;6.256;2022-08-18T04:09:51;4.60;;;3.30;;
41333;SDS011;27078;46.428;6.256;2022-08-18T04:13:15;4.93;;;3.42;;
41333;SDS011;27078;46.428;6.256;2022-08-18T04:16:41;4.82;;;3.22;;
41333;SDS011;27078;46.428;6.256;2022-08-18T04:20:05;5.03;;;3.97;;
41333;SDS011;27078;46.428;6.256;2022-08-18T04:23:37;5.22;;;3.58;;
41333;SDS011;27078;46.428;6.256;2022-08-18T04:27:02;6.40;;;3.72;;
41333;SDS011;27078;46.428;6.256;2022-08-18T04:30:27;5.78;;;3.67;;
41333;SDS011;27078;46.428;6.256;2022-08-18T04:33:52;4.97;;;3.50;;
41333;SDS011;27078;46.428;6.256;2022-08-18T04:37:16;6.07;;;3.70;;
41333;SDS011;27078;46.428;6.256;2022-08-18T04:40:40;4.03;;;3.15;;
41333;SDS011;27078;46.428;6.256;2022-08-18T04:44:07;5.78;;;3.13;;
41333;SDS011;27078;46.428;6.256;2022-08-18T04:47:32;4.22;;;3.42;;
41333;SDS011;27078;46.428;6.256;2022-08-18T04:51:18;4.45;;;3.30;;
41333;SDS011;27078;46.428;6.256;2022-08-18T04:55:01;4.03;;;3.15;;
41333;SDS011;27078;46.428;6.256;2022-08-18T04:58:25;5.35;;;3.42;;
41333;SDS011;27078;46.428;6.256;2022-08-18T05:01:49;4.60;;;3.30;;
41333;SDS011;27078;46.428;6.256;2022-08-18T05:05:13;4.65;;;3.05;;
41333;SDS011;27078;46.428;6.256;2022-08-18T05:08:37;4.25;;;3.42;;
41333;SDS011;27078;46.428;6.256;2022-08-18T05:12:02;5.28;;;3.17;;
41333;SDS011;27078;46.428;6.256;2022-08-18T05:15:27;3.58;;;3.05;;
41333;SDS011;27078;46.428;6.256;2022-08-18T05:18:52;4.90;;;3.15;;
41333;SDS011;27078;46.428;6.256;2022-08-18T05:22:16;5.38;;;3.38;;
41333;SDS011;27078;46.428;6.256;2022-08-18T05:25:41;3.97;;;3.05;;
41333;SDS011;27078;46.428;6.256;2022-08-18T05:29:05;4.32;;;3.20;;
41333;SDS011;27078;46.428;6.256;2022-08-18T05:32:38;5.88;;;3.38;;
41333;SDS011;27078;46.428;6.256;2022-08-18T05:36:04;5.18;;;2.90;;
41333;SDS011;27078;46.428;6.256;2022-08-18T05:43:28;3.65;;;2.90;;
41333;SDS011;27078;46.428;6.256;2022-08-18T05:46:55;3.72;;;3.05;;
41333;SDS011;27078;46.428;6.256;2022-08-18T05:50:24;4.57;;;3.08;;
41333;SDS011;27078;46.428;6.256;2022-08-18T05:53:55;3.63;;;3.17;;
41333;SDS011;27078;46.428;6.256;2022-08-18T05:57:57;5.15;;;3.03;;
41333;SDS011;27078;46.428;6.256;2022-08-18T06:01:27;4.22;;;3.28;;
41333;SDS011;27078;46.428;6.256;2022-08-18T06:05:05;3.75;;;2.92;;
41333;SDS011;27078;46.428;6.256;2022-08-18T06:08:40;4.65;;;2.90;;
41333;SDS011;27078;46.428;6.256;2022-08-18T06:12:15;3.40;;;2.88;;
41333;SDS011;27078;46.428;6.256;2022-08-18T06:16:07;4.57;;;3.35;;
41333;SDS011;27078;46.428;6.256;2022-08-18T06:23:30;3.67;;;2.88;;
41333;SDS011;27078;46.428;6.256;2022-08-18T06:37:52;3.70;;;3.10;;
41333;SDS011;27078;46.428;6.256;2022-08-18T06:40:47;3.95;;;3.00;;
41333;SDS011;27078;46.428;6.256;2022-08-18T06:43:13;3.85;;;3.08;;
41333;SDS011;27078;46.428;6.256;2022-08-18T06:45:41;4.65;;;2.92;;
41333;SDS011;27078;46.428;6.256;2022-08-18T06:50:48;4.22;;;2.58;;
41333;SDS011;27078;46.428;6.256;2022-08-18T06:53:17;4.15;;;3.10;;
41333;SDS011;27078;46.428;6.256;2022-08-18T06:55:45;4.25;;;3.13;;
41333;SDS011;27078;46.428;6.256;2022-08-18T07:00:53;3.97;;;3.20;;
41333;SDS011;27078;46.428;6.256;2022-08-18T07:03:23;4.25;;;3.05;;
41333;SDS011;27078;46.428;6.256;2022-08-18T07:08:31;4.35;;;3.17;;
41333;SDS011;27078;46.428;6.256;2022-08-18T07:11:10;4.82;;;3.20;;
41333;SDS011;27078;46.428;6.256;2022-08-18T07:13:37;4.18;;;3.35;;
41333;SDS011;27078;46.428;6.256;2022-08-18T07:18:46;5.47;;;3.20;;
41333;SDS011;27078;46.428;6.256;2022-08-18T07:21:25;5.60;;;3.03;;
41333;SDS011;27078;46.428;6.256;2022-08-18T07:27:04;3.53;;;2.95;;
41333;SDS011;27078;46.428;6.256;2022-08-18T07:32:26;7.05;;;3.42;;
41333;SDS011;27078;46.428;6.256;2022-08-18T07:34:58;3.15;;;2.70;;
41333;SDS011;27078;46.428;6.256;2022-08-18T07:37:33;3.97;;;2.97;;
41333;SDS011;27078;46.428;6.256;2022-08-18T07:40:23;5.65;;;3.10;;
41333;SDS011;27078;46.428;6.256;2022-08-18T07:43:04;5.18;;;3.03;;
41333;SDS011;27078;46.428;6.256;2022-08-18T07:45:37;4.05;;;2.90;;
41333;SDS011;27078;46.428;6.256;2022-08-18T07:48:17;3.00;;;2.67;;
41333;SDS011;27078;46.428;6.256;2022-08-18T07:56:00;6.28;;;3.38;;
41333;SDS011;27078;46.428;6.256;2022-08-18T08:01:17;6.13;;;3.42;;
41333;SDS011;27078;46.428;6.256;2022-08-18T08:03:53;4.22;;;3.50;;
41333;SDS011;27078;46.428;6.256;2022-08-18T08:09:11;5.57;;;4.10;;
41333;SDS011;27078;46.428;6.256;2022-08-18T08:11:55;6.35;;;3.67;;
41333;SDS011;27078;46.428;6.256;2022-08-18T08:22:30;6.38;;;4.50;;
41333;SDS011;27078;46.428;6.256;2022-08-18T08:25:25;5.68;;;3.95;;
41333;SDS011;27078;46.428;6.256;2022-08-18T08:28:19;6.40;;;4.57;;
41333;SDS011;27078;46.428;6.256;2022-08-18T08:33:26;4.82;;;3.90;;
41333;SDS011;27078;46.428;6.256;2022-08-18T08:36:17;7.45;;;4.75;;
41333;SDS011;27078;46.428;6.256;2022-08-18T08:39:05;5.22;;;3.72;;
41333;SDS011;27078;46.428;6.256;2022-08-18T08:41:43;5.00;;;3.55;;
41333;SDS011;27078;46.428;6.256;2022-08-18T08:44:26;4.68;;;3.50;;
41333;SDS011;27078;46.428;6.256;2022-08-18T08:47:02;4.10;;;3.63;;
41333;SDS011;27078;46.428;6.256;2022-08-18T08:49:48;8.45;;;4.05;;
41333;SDS011;27078;46.428;6.256;2022-08-18T08:52:36;4.15;;;3.65;;
41333;SDS011;27078;46.428;6.256;2022-08-18T08:55:30;5.60;;;4.13;;
41333;SDS011;27078;46.428;6.256;2022-08-18T09:00:40;5.63;;;4.03;;
41333;SDS011;27078;46.428;6.256;2022-08-18T09:08:45;5.05;;;3.40;;
41333;SDS011;27078;46.428;6.256;2022-08-18T09:11:33;4.45;;;3.53;;
41333;SDS011;27078;46.428;6.256;2022-08-18T09:17:19;4.43;;;3.58;;
41333;SDS011;27078;46.428;6.256;2022-08-18T09:22:35;5.22;;;3.97;;
41333;SDS011;27078;46.428;6.256;2022-08-18T09:41:49;4.90;;;3.22;;
41333;SDS011;27078;46.428;6.256;2022-08-18T09:47:10;4.95;;;3.33;;
41333;SDS011;27078;46.428;6.256;2022-08-18T09:54:52;3.83;;;3.00;;
41333;SDS011;27078;46.428;6.256;2022-08-18T09:57:32;4.35;;;3.47;;
41333;SDS011;27078;46.428;6.256;2022-08-18T10:07:50;3.38;;;2.90;;
41333;SDS011;27078;46.428;6.256;2022-08-18T10:10:48;3.65;;;2.97;;
41333;SDS011;27078;46.428;6.256;2022-08-18T10:24:27;3.40;;;3.10;;
41333;SDS011;27078;46.428;6.256;2022-08-18T10:44:35;3.22;;;2.80;;
41333;SDS011;27078;46.428;6.256;2022-08-18T10:47:06;5.30;;;3.20;;
41333;SDS011;27078;46.428;6.256;2022-08-18T10:49:33;3.53;;;2.83;;
41333;SDS011;27078;46.428;6.256;2022-08-18T10:52:20;6.43;;;3.00;;
41333;SDS011;27078;46.428;6.256;2022-08-18T10:55:05;4.55;;;3.05;;
41333;SDS011;27078;46.428;6.256;2022-08-18T11:00:26;3.50;;;3.10;;
41333;SDS011;27078;46.428;6.256;2022-08-18T11:03:31;4.43;;;3.00;;
41333;SDS011;27078;46.428;6.256;2022-08-18T11:06:09;5.07;;;4.20;;
41333;SDS011;27078;46.428;6.256;2022-08-18T11:08:42;5.90;;;4.38;;
41333;SDS011;27078;46.428;6.256;2022-08-18T11:11:10;11.65;;;8.95;;
41333;SDS011;27078;46.428;6.256;2022-08-18T11:13:47;11.82;;;8.40;;
41333;SDS011;27078;46.428;6.256;2022-08-18T11:19:20;5.97;;;4.72;;
41333;SDS011;27078;46.428;6.256;2022-08-18T11:21:47;8.00;;;5.20;;
41333;SDS011;27078;46.428;6.256;2022-08-18T11:24:19;9.32;;;4.90;;
41333;SDS011;27078;46.428;6.256;2022-08-18T11:29:21;23.45;;;9.50;;
41333;SDS011;27078;46.428;6.256;2022-08-18T11:31:49;14.15;;;7.97;;
41333;SDS011;27078;46.428;6.256;2022-08-18T11:34:22;8.27;;;5.20;;
41333;SDS011;27078;46.428;6.256;2022-08-18T11:37:26;11.43;;;5.97;;
41333;SDS011;27078;46.428;6.256;2022-08-18T11:39:59;8.45;;;5.28;;
41333;SDS011;27078;46.428;6.256;2022-08-18T11:42:27;6.18;;;4.32;;
41333;SDS011;27078;46.428;6.256;2022-08-18T11:47:32;5.93;;;3.97;;
41333;SDS011;27078;46.428;6.256;2022-08-18T11:50:11;5.25;;;3.92;;
41333;SDS011;27078;46.428;6.256;2022-08-18T11:52:47;4.38;;;3.50;;
41333;SDS011;27078;46.428;6.256;2022-08-18T11:55:33;5.55;;;3.60;;
41333;SDS011;27078;46.428;6.256;2022-08-18T11:57:59;3.85;;;3.15;;
41333;SDS011;27078;46.428;6.256;2022-08-18T12:03:20;4.72;;;3.20;;
41333;SDS011;27078;46.428;6.256;2022-08-18T12:05:55;5.30;;;3.13;;
41333;SDS011;27078;46.428;6.256;2022-08-18T12:08:37;4.82;;;3.30;;
41333;SDS011;27078;46.428;6.256;2022-08-18T12:11:15;4.65;;;3.50;;
41333;SDS011;27078;46.428;6.256;2022-08-18T12:13:45;4.20;;;3.03;;
41333;SDS011;27078;46.428;6.256;2022-08-18T12:16:13;5.20;;;3.40;;
41333;SDS011;27078;46.428;6.256;2022-08-18T12:18:55;3.95;;;3.17;;
41333;SDS011;27078;46.428;6.256;2022-08-18T12:21:21;3.22;;;2.92;;
41333;SDS011;27078;46.428;6.256;2022-08-18T12:23:47;4.28;;;3.35;;
41333;SDS011;27078;46.428;6.256;2022-08-18T12:26:12;3.35;;;3.03;;
41333;SDS011;27078;46.428;6.256;2022-08-18T12:28:38;3.45;;;2.72;;
41333;SDS011;27078;46.428;6.256;2022-08-18T12:31:04;3.05;;;2.75;;
41333;SDS011;27078;46.428;6.256;2022-08-18T12:33:30;3.25;;;2.50;;
41333;SDS011;27078;46.428;6.256;2022-08-18T12:35:55;5.07;;;2.88;;
41333;SDS011;27078;46.428;6.256;2022-08-18T12:38:21;3.50;;;2.90;;
41333;SDS011;27078;46.428;6.256;2022-08-18T12:40:47;4.13;;;2.83;;
41333;SDS011;27078;46.428;6.256;2022-08-18T12:43:12;4.22;;;2.50;;
41333;SDS011;27078;46.428;6.256;2022-08-18T12:45:38;3.35;;;2.80;;
41333;SDS011;27078;46.428;6.256;2022-08-18T12:48:04;4.78;;;2.90;;
41333;SDS011;27078;46.428;6.256;2022-08-18T12:50:31;3.35;;;2.90;;
41333;SDS011;27078;46.428;6.256;2022-08-18T12:52:56;3.72;;;2.75;;
41333;SDS011;27078;46.428;6.256;2022-08-18T12:55:22;3.22;;;2.80;;
41333;SDS011;27078;46.428;6.256;2022-08-18T12:57:47;4.00;;;2.90;;
41333;SDS011;27078;46.428;6.256;2022-08-18T13:00:13;3.42;;;2.30;;
41333;SDS011;27078;46.428;6.256;2022-08-18T13:02:38;3.45;;;2.50;;
41333;SDS011;27078;46.428;6.256;2022-08-18T13:05:05;3.00;;;2.63;;
41333;SDS011;27078;46.428;6.256;2022-08-18T13:07:30;5.10;;;2.95;;
41333;SDS011;27078;46.428;6.256;2022-08-18T13:09:56;2.75;;;2.55;;
41333;SDS011;27078;46.428;6.256;2022-08-18T13:12:21;3.45;;;2.88;;
41333;SDS011;27078;46.428;6.256;2022-08-18T13:14:49;3.75;;;2.60;;
41333;SDS011;27078;46.428;6.256;2022-08-18T13:17:15;2.95;;;2.47;;
41333;SDS011;27078;46.428;6.256;2022-08-18T13:19:41;3.15;;;2.70;;
41333;SDS011;27078;46.428;6.256;2022-08-18T13:22:06;3.75;;;2.55;;
41333;SDS011;27078;46.428;6.256;2022-08-18T13:24:31;3.70;;;2.53;;
41333;SDS011;27078;46.428;6.256;2022-08-18T13:26:57;4.07;;;2.90;;
41333;SDS011;27078;46.428;6.256;2022-08-18T13:29:22;3.45;;;2.50;;
41333;SDS011;27078;46.428;6.256;2022-08-18T13:31:48;3.25;;;2.42;;
41333;SDS011;27078;46.428;6.256;2022-08-18T13:34:14;3.13;;;2.58;;
41333;SDS011;27078;46.428;6.256;2022-08-18T13:36:40;4.75;;;3.00;;
41333;SDS011;27078;46.428;6.256;2022-08-18T13:39:15;3.25;;;2.78;;
41333;SDS011;27078;46.428;6.256;2022-08-18T13:41:41;4.00;;;2.70;;
41333;SDS011;27078;46.428;6.256;2022-08-18T13:44:08;3.38;;;2.85;;
41333;SDS011;27078;46.428;6.256;2022-08-18T13:46:36;4.00;;;3.10;;
41333;SDS011;27078;46.428;6.256;2022-08-18T13:49:16;3.13;;;2.50;;
41333;SDS011;27078;46.428;6.256;2022-08-18T13:51:43;3.70;;;2.53;;
41333;SDS011;27078;46.428;6.256;2022-08-18T13:54:25;3.58;;;2.88;;
41333;SDS011;27078;46.428;6.256;2022-08-18T13:59:18;3.13;;;2.70;;
41333;SDS011;27078;46.428;6.256;2022-08-18T14:01:45;3.25;;;2.95;;
41333;SDS011;27078;46.428;6.256;2022-08-18T14:04:12;4.15;;;2.90;;
41333;SDS011;27078;46.428;6.256;2022-08-18T14:06:39;5.20;;;2.75;;
41333;SDS011;27078;46.428;6.256;2022-08-18T14:09:04;3.25;;;2.92;;
41333;SDS011;27078;46.428;6.256;2022-08-18T14:11:31;4.50;;;3.05;;
41333;SDS011;27078;46.428;6.256;2022-08-18T14:13:58;4.40;;;2.80;;
41333;SDS011;27078;46.428;6.256;2022-08-18T14:16:24;5.45;;;2.70;;
41333;SDS011;27078;46.428;6.256;2022-08-18T14:18:49;3.33;;;2.65;;
41333;SDS011;27078;46.428;6.256;2022-08-18T14:21:34;4.40;;;2.83;;
41333;SDS011;27078;46.428;6.256;2022-08-18T14:24:29;3.40;;;2.65;;
41333;SDS011;27078;46.428;6.256;2022-08-18T14:27:14;3.95;;;2.90;;
41333;SDS011;27078;46.428;6.256;2022-08-18T14:29:41;3.25;;;2.53;;
41333;SDS011;27078;46.428;6.256;2022-08-18T14:32:07;4.13;;;2.70;;
41333;SDS011;27078;46.428;6.256;2022-08-18T14:34:33;3.65;;;2.80;;
41333;SDS011;27078;46.428;6.256;2022-08-18T14:36:59;3.50;;;2.60;;
41333;SDS011;27078;46.428;6.256;2022-08-18T14:39:25;3.13;;;2.60;;
41333;SDS011;27078;46.428;6.256;2022-08-18T14:41:51;3.08;;;2.70;;
41333;SDS011;27078;46.428;6.256;2022-08-18T14:44:16;3.70;;;2.65;;
41333;SDS011;27078;46.428;6.256;2022-08-18T14:46:42;3.83;;;2.83;;
41333;SDS011;27078;46.428;6.256;2022-08-18T14:49:10;4.50;;;2.92;;
41333;SDS011;27078;46.428;6.256;2022-08-18T14:51:36;3.20;;;2.90;;
41333;SDS011;27078;46.428;6.256;2022-08-18T14:54:03;3.85;;;3.00;;
41333;SDS011;27078;46.428;6.256;2022-08-18T14:56:28;4.88;;;3.17;;
41333;SDS011;27078;46.428;6.256;2022-08-18T14:58:53;4.53;;;3.10;;
41333;SDS011;27078;46.428;6.256;2022-08-18T15:01:19;3.00;;;2.70;;
41333;SDS011;27078;46.428;6.256;2022-08-18T15:03:44;3.75;;;3.15;;
41333;SDS011;27078;46.428;6.256;2022-08-18T15:06:10;5.43;;;3.10;;
41333;SDS011;27078;46.428;6.256;2022-08-18T15:08:35;4.90;;;2.80;;
41333;SDS011;27078;46.428;6.256;2022-08-18T15:11:02;4.55;;;3.20;;
41333;SDS011;27078;46.428;6.256;2022-08-18T15:13:30;3.40;;;2.90;;
41333;SDS011;27078;46.428;6.256;2022-08-18T15:15:56;3.15;;;2.80;;
41333;SDS011;27078;46.428;6.256;2022-08-18T15:18:21;3.88;;;3.40;;
41333;SDS011;27078;46.428;6.256;2022-08-18T15:20:47;3.83;;;3.20;;
41333;SDS011;27078;46.428;6.256;2022-08-18T15:23:32;3.25;;;2.95;;
41333;SDS011;27078;46.428;6.256;2022-08-18T15:26:20;4.68;;;2.88;;
41333;SDS011;27078;46.428;6.256;2022-08-18T15:28:48;4.43;;;3.17;;
41333;SDS011;27078;46.428;6.256;2022-08-18T15:31:13;3.72;;;2.90;;
41333;SDS011;27078;46.428;6.256;2022-08-18T15:33:39;4.80;;;3.20;;
41333;SDS011;27078;46.428;6.256;2022-08-18T15:36:04;4.00;;;3.20;;
41333;SDS011;27078;46.428;6.256;2022-08-18T15:38:30;5.65;;;3.35;;
41333;SDS011;27078;46.428;6.256;2022-08-18T15:40:56;3.63;;;3.08;;
41333;SDS011;27078;46.428;6.256;2022-08-18T15:43:23;3.83;;;3.10;;
41333;SDS011;27078;46.428;6.256;2022-08-18T15:45:50;3.78;;;3.42;;
41333;SDS011;27078;46.428;6.256;2022-08-18T15:48:17;5.90;;;3.20;;
41333;SDS011;27078;46.428;6.256;2022-08-18T15:50:44;3.60;;;3.03;;
41333;SDS011;27078;46.428;6.256;2022-08-18T15:53:13;3.60;;;3.08;;
41333;SDS011;27078;46.428;6.256;2022-08-18T15:55:40;4.03;;;3.20;;
41333;SDS011;27078;46.428;6.256;2022-08-18T15:58:06;3.53;;;2.97;;
41333;SDS011;27078;46.428;6.256;2022-08-18T16:00:33;4.30;;;2.83;;
41333;SDS011;27078;46.428;6.256;2022-08-18T16:03:00;3.65;;;3.20;;
41333;SDS011;27078;46.428;6.256;2022-08-18T16:05:39;3.50;;;3.20;;
41333;SDS011;27078;46.428;6.256;2022-08-18T16:08:07;3.85;;;2.92;;
41333;SDS011;27078;46.428;6.256;2022-08-18T16:10:35;4.55;;;2.97;;
41333;SDS011;27078;46.428;6.256;2022-08-18T16:13:02;4.18;;;3.20;;
41333;SDS011;27078;46.428;6.256;2022-08-18T16:15:29;3.97;;;3.08;;
41333;SDS011;27078;46.428;6.256;2022-08-18T16:17:57;3.65;;;2.90;;
41333;SDS011;27078;46.428;6.256;2022-08-18T16:20:22;3.55;;;3.10;;
41333;SDS011;27078;46.428;6.256;2022-08-18T16:22:48;3.78;;;3.22;;
41333;SDS011;27078;46.428;6.256;2022-08-18T16:25:14;3.88;;;3.35;;
41333;SDS011;27078;46.428;6.256;2022-08-18T16:27:40;4.68;;;3.25;;
41333;SDS011;27078;46.428;6.256;2022-08-18T16:30:10;3.45;;;3.15;;
41333;SDS011;27078;46.428;6.256;2022-08-18T16:32:38;4.30;;;3.33;;
41333;SDS011;27078;46.428;6.256;2022-08-18T16:35:04;4.35;;;3.30;;
41333;SDS011;27078;46.428;6.256;2022-08-18T16:37:30;3.55;;;3.05;;
41333;SDS011;27078;46.428;6.256;2022-08-18T16:39:56;4.15;;;3.30;;
41333;SDS011;27078;46.428;6.256;2022-08-18T16:42:21;4.05;;;3.28;;
41333;SDS011;27078;46.428;6.256;2022-08-18T16:44:47;5.13;;;3.25;;
41333;SDS011;27078;46.428;6.256;2022-08-18T16:47:12;3.65;;;3.03;;
41333;SDS011;27078;46.428;6.256;2022-08-18T16:49:41;3.88;;;3.25;;
41333;SDS011;27078;46.428;6.256;2022-08-18T16:52:07;3.50;;;2.92;;
41333;SDS011;27078;46.428;6.256;2022-08-18T16:54:32;3.70;;;2.75;;
41333;SDS011;27078;46.428;6.256;2022-08-18T16:56:57;4.80;;;3.10;;
41333;SDS011;27078;46.428;6.256;2022-08-18T16:59:23;4.15;;;3.30;;
41333;SDS011;27078;46.428;6.256;2022-08-18T17:02:07;3.42;;;3.10;;
41333;SDS011;27078;46.428;6.256;2022-08-18T17:04:52;5.30;;;3.13;;
41333;SDS011;27078;46.428;6.256;2022-08-18T17:07:17;6.35;;;3.80;;
41333;SDS011;27078;46.428;6.256;2022-08-18T17:09:43;7.35;;;3.97;;
41333;SDS011;27078;46.428;6.256;2022-08-18T17:12:08;9.32;;;4.43;;
41333;SDS011;27078;46.428;6.256;2022-08-18T17:14:33;7.03;;;4.03;;
41333;SDS011;27078;46.428;6.256;2022-08-18T17:17:00;4.70;;;3.67;;
41333;SDS011;27078;46.428;6.256;2022-08-18T17:19:28;7.47;;;3.53;;
41333;SDS011;27078;46.428;6.256;2022-08-18T17:21:57;6.68;;;3.53;;
41333;SDS011;27078;46.428;6.256;2022-08-18T17:24:22;7.20;;;3.42;;
41333;SDS011;27078;46.428;6.256;2022-08-18T17:31:46;5.70;;;3.60;;
41333;SDS011;27078;46.428;6.256;2022-08-18T17:34:15;6.47;;;3.85;;
41333;SDS011;27078;46.428;6.256;2022-08-18T17:36:50;3.78;;;3.38;;
41333;SDS011;27078;46.428;6.256;2022-08-18T17:39:21;5.85;;;3.90;;
41333;SDS011;27078;46.428;6.256;2022-08-18T17:41:49;4.82;;;3.60;;
41333;SDS011;27078;46.428;6.256;2022-08-18T17:44:32;6.05;;;3.67;;
41333;SDS011;27078;46.428;6.256;2022-08-18T17:47:01;4.95;;;3.90;;
41333;SDS011;27078;46.428;6.256;2022-08-18T17:49:32;8.00;;;5.65;;
41333;SDS011;27078;46.428;6.256;2022-08-18T17:52:30;11.82;;;7.90;;
41333;SDS011;27078;46.428;6.256;2022-08-18T17:55:04;5.45;;;4.55;;
41333;SDS011;27078;46.428;6.256;2022-08-18T18:02:30;6.53;;;4.25;;
41333;SDS011;27078;46.428;6.256;2022-08-18T18:04:58;4.80;;;3.78;;
41333;SDS011;27078;46.428;6.256;2022-08-18T18:10:25;5.85;;;3.90;;
41333;SDS011;27078;46.428;6.256;2022-08-18T18:15:31;5.55;;;3.90;;
41333;SDS011;27078;46.428;6.256;2022-08-18T18:17:57;5.82;;;4.95;;
41333;SDS011;27078;46.428;6.256;2022-08-18T18:23:34;7.07;;;4.70;;
41333;SDS011;27078;46.428;6.256;2022-08-18T18:29:07;6.60;;;4.75;;
41333;SDS011;27078;46.428;6.256;2022-08-18T18:31:33;6.40;;;5.00;;
41333;SDS011;27078;46.428;6.256;2022-08-18T18:34:01;6.40;;;4.97;;
41333;SDS011;27078;46.428;6.256;2022-08-18T18:36:51;5.70;;;4.60;;
41333;SDS011;27078;46.428;6.256;2022-08-18T18:39:19;6.13;;;4.43;;
41333;SDS011;27078;46.428;6.256;2022-08-18T18:41:48;5.45;;;4.72;;
41333;SDS011;27078;46.428;6.256;2022-08-18T18:44:19;5.38;;;4.50;;
41333;SDS011;27078;46.428;6.256;2022-08-18T18:47:05;5.32;;;4.55;;
41333;SDS011;27078;46.428;6.256;2022-08-18T18:49:45;7.07;;;5.00;;
41333;SDS011;27078;46.428;6.256;2022-08-18T18:54:53;6.85;;;4.43;;
41333;SDS011;27078;46.428;6.256;2022-08-18T19:02:48;6.28;;;4.60;;
41333;SDS011;27078;46.428;6.256;2022-08-18T19:07:51;6.53;;;4.05;;
41333;SDS011;27078;46.428;6.256;2022-08-18T19:13:14;4.75;;;3.45;;
41333;SDS011;27078;46.428;6.256;2022-08-18T19:15:43;5.45;;;3.42;;
41333;SDS011;27078;46.428;6.256;2022-08-18T19:20:48;3.85;;;2.92;;
41333;SDS011;27078;46.428;6.256;2022-08-18T19:23:23;3.50;;;3.00;;
41333;SDS011;27078;46.428;6.256;2022-08-18T19:25:53;3.38;;;2.95;;
41333;SDS011;27078;46.428;6.256;2022-08-18T19:28:24;3.15;;;2.85;;
41333;SDS011;27078;46.428;6.256;2022-08-18T19:30:56;3.90;;;2.90;;
41333;SDS011;27078;46.428;6.256;2022-08-18T19:33:28;4.10;;;3.15;;
41333;SDS011;27078;46.428;6.256;2022-08-18T19:36:21;3.92;;;3.33;;
41333;SDS011;27078;46.428;6.256;2022-08-18T19:46:53;3.50;;;3.20;;
41333;SDS011;27078;46.428;6.256;2022-08-18T19:52:00;4.27;;;3.20;;
41333;SDS011;27078;46.428;6.256;2022-08-18T19:54:52;4.63;;;3.38;;
41333;SDS011;27078;46.428;6.256;2022-08-18T19:57:47;4.25;;;3.70;;
41333;SDS011;27078;46.428;6.256;2022-08-18T20:06:06;5.20;;;3.70;;
41333;SDS011;27078;46.428;6.256;2022-08-18T20:14:25;4.40;;;3.92;;